sensor_id;sensor_type;location;lat;lon;timestamp;pressure;altitude;pressure_sealevel;temperature
19644;BMP180;9970;-36.854;174.870;2023-02-11T00:00:34;101079.00;;;21.80
19644;BMP180;9970;-36.854;174.870;2023-02-11T00:03:07;101071.00;;;21.80
19644;BMP180;9970;-36.854;174.870;2023-02-11T00:05:40;101062.00;;;21.80
19644;BMP180;9970;-36.854;174.870;2023-02-11T00:08:13;101063.00;;;21.80
19644;BMP180;9970;-36.854;174.870;2023-02-11T00:10:50;101066.00;;;21.90
19644;BMP180;9970;-36.854;174.870;2023-02-11T00:13:21;101061.00;;;21.90
19644;BMP180;9970;-36.854;174.870;2023-02-11T00:15:55;101066.00;;;21.90
19644;BMP180;9970;-36.854;174.870;2023-02-11T00:18:30;101062.00;;;21.80
19644;BMP180;9970;-36.854;174.870;2023-02-11T00:21:18;101069.00;;;21.80
19644;BMP180;9970;-36.854;174.870;2023-02-11T00:23:50;101043.00;;;21.80
19644;BMP180;9970;-36.854;174.870;2023-02-11T00:26:25;101053.00;;;21.80
19644;BMP180;9970;-36.854;174.870;2023-02-11T00:28:58;101042.00;;;21.80
19644;BMP180;9970;-36.854;174.870;2023-02-11T00:31:32;101049.00;;;21.80
19644;BMP180;9970;-36.854;174.870;2023-02-11T00:34:05;101056.00;;;21.80
19644;BMP180;9970;-36.854;174.870;2023-02-11T00:36:37;101045.00;;;21.90
19644;BMP180;9970;-36.854;174.870;2023-02-11T00:39:10;101038.00;;;21.90
19644;BMP180;9970;-36.854;174.870;2023-02-11T00:41:43;101041.00;;;21.90
19644;BMP180;9970;-36.854;174.870;2023-02-11T00:44:16;101040.00;;;21.90
19644;BMP180;9970;-36.854;174.870;2023-02-11T00:46:49;101036.00;;;21.90
19644;BMP180;9970;-36.854;174.870;2023-02-11T00:49:22;101023.00;;;21.90
19644;BMP180;9970;-36.854;174.870;2023-02-11T00:51:55;101033.00;;;22.00
19644;BMP180;9970;-36.854;174.870;2023-02-11T00:54:28;101036.00;;;22.00
19644;BMP180;9970;-36.854;174.870;2023-02-11T00:57:01;101029.00;;;22.00
19644;BMP180;9970;-36.854;174.870;2023-02-11T00:59:34;101033.00;;;22.00
19644;BMP180;9970;-36.854;174.870;2023-02-11T01:02:07;101020.00;;;22.00
19644;BMP180;9970;-36.854;174.870;2023-02-11T01:04:40;101042.00;;;21.90
19644;BMP180;9970;-36.854;174.870;2023-02-11T01:07:13;101032.00;;;21.90
19644;BMP180;9970;-36.854;174.870;2023-02-11T01:09:46;101026.00;;;21.90
19644;BMP180;9970;-36.854;174.870;2023-02-11T01:12:19;101039.00;;;21.80
19644;BMP180;9970;-36.854;174.870;2023-02-11T01:14:52;101031.00;;;21.80
19644;BMP180;9970;-36.854;174.870;2023-02-11T01:17:25;101030.00;;;21.80
19644;BMP180;9970;-36.854;174.870;2023-02-11T01:19:58;101030.00;;;21.70
19644;BMP180;9970;-36.854;174.870;2023-02-11T01:22:31;101018.00;;;21.70
19644;BMP180;9970;-36.854;174.870;2023-02-11T01:25:04;101021.00;;;21.70
19644;BMP180;9970;-36.854;174.870;2023-02-11T01:27:38;101015.00;;;21.70
19644;BMP180;9970;-36.854;174.870;2023-02-11T01:30:12;101008.00;;;21.70
19644;BMP180;9970;-36.854;174.870;2023-02-11T01:32:45;100996.00;;;21.60
19644;BMP180;9970;-36.854;174.870;2023-02-11T01:35:18;100994.00;;;21.60
19644;BMP180;9970;-36.854;174.870;2023-02-11T01:37:51;100985.00;;;21.60
19644;BMP180;9970;-36.854;174.870;2023-02-11T01:40:24;100982.00;;;21.60
19644;BMP180;9970;-36.854;174.870;2023-02-11T01:42:58;100980.00;;;21.60
19644;BMP180;9970;-36.854;174.870;2023-02-11T01:45:41;100971.00;;;21.60
19644;BMP180;9970;-36.854;174.870;2023-02-11T01:48:19;100976.00;;;21.60
19644;BMP180;9970;-36.854;174.870;2023-02-11T01:50:54;100971.00;;;21.60
19644;BMP180;9970;-36.854;174.870;2023-02-11T01:53:27;100966.00;;;21.50
19644;BMP180;9970;-36.854;174.870;2023-02-11T01:56:19;100968.00;;;21.50
19644;BMP180;9970;-36.854;174.870;2023-02-11T01:59:12;100948.00;;;21.50
19644;BMP180;9970;-36.854;174.870;2023-02-11T02:01:46;100955.00;;;21.50
19644;BMP180;9970;-36.854;174.870;2023-02-11T02:04:19;100952.00;;;21.50
19644;BMP180;9970;-36.854;174.870;2023-02-11T02:07:01;100944.00;;;21.50
19644;BMP180;9970;-36.854;174.870;2023-02-11T02:09:36;100951.00;;;21.50
19644;BMP180;9970;-36.854;174.870;2023-02-11T02:12:08;100950.00;;;21.50
19644;BMP180;9970;-36.854;174.870;2023-02-11T02:14:41;100956.00;;;21.50
19644;BMP180;9970;-36.854;174.870;2023-02-11T02:17:25;100935.00;;;21.50
19644;BMP180;9970;-36.854;174.870;2023-02-11T02:23:12;100957.00;;;21.50
19644;BMP180;9970;-36.854;174.870;2023-02-11T02:25:34;100947.00;;;21.40
19644;BMP180;9970;-36.854;174.870;2023-02-11T02:31:12;100944.00;;;21.40
19644;BMP180;9970;-36.854;174.870;2023-02-11T02:33:59;100949.00;;;21.40
19644;BMP180;9970;-36.854;174.870;2023-02-11T02:37:12;100953.00;;;21.40
19644;BMP180;9970;-36.854;174.870;2023-02-11T02:39:23;100942.00;;;21.30
19644;BMP180;9970;-36.854;174.870;2023-02-11T02:41:57;100938.00;;;21.30
19644;BMP180;9970;-36.854;174.870;2023-02-11T02:44:30;100947.00;;;21.40
19644;BMP180;9970;-36.854;174.870;2023-02-11T02:47:03;100949.00;;;21.40
19644;BMP180;9970;-36.854;174.870;2023-02-11T02:49:36;100954.00;;;21.30
19644;BMP180;9970;-36.854;174.870;2023-02-11T02:52:28;100948.00;;;21.30
19644;BMP180;9970;-36.854;174.870;2023-02-11T02:55:18;100946.00;;;21.30
19644;BMP180;9970;-36.854;174.870;2023-02-11T03:01:07;100936.00;;;21.30
19644;BMP180;9970;-36.854;174.870;2023-02-11T03:03:58;100933.00;;;21.30
19644;BMP180;9970;-36.854;174.870;2023-02-11T03:09:15;100917.00;;;21.40
19644;BMP180;9970;-36.854;174.870;2023-02-11T03:11:51;100913.00;;;21.40
19644;BMP180;9970;-36.854;174.870;2023-02-11T03:14:25;100910.00;;;21.40
19644;BMP180;9970;-36.854;174.870;2023-02-11T03:17:00;100902.00;;;21.40
19644;BMP180;9970;-36.854;174.870;2023-02-11T03:19:37;100897.00;;;21.40
19644;BMP180;9970;-36.854;174.870;2023-02-11T03:22:23;100898.00;;;21.40
19644;BMP180;9970;-36.854;174.870;2023-02-11T03:24:51;100901.00;;;21.40
19644;BMP180;9970;-36.854;174.870;2023-02-11T03:27:32;100912.00;;;21.30
19644;BMP180;9970;-36.854;174.870;2023-02-11T03:33:08;100912.00;;;21.20
19644;BMP180;9970;-36.854;174.870;2023-02-11T03:35:38;100902.00;;;21.10
19644;BMP180;9970;-36.854;174.870;2023-02-11T03:38:20;100909.00;;;21.10
19644;BMP180;9970;-36.854;174.870;2023-02-11T03:40:54;100899.00;;;21.10
19644;BMP180;9970;-36.854;174.870;2023-02-11T03:43:39;100892.00;;;21.00
19644;BMP180;9970;-36.854;174.870;2023-02-11T03:46:02;100882.00;;;21.10
19644;BMP180;9970;-36.854;174.870;2023-02-11T03:48:40;100898.00;;;21.10
19644;BMP180;9970;-36.854;174.870;2023-02-11T03:51:15;100879.00;;;21.10
19644;BMP180;9970;-36.854;174.870;2023-02-11T03:53:48;100883.00;;;21.00
19644;BMP180;9970;-36.854;174.870;2023-02-11T03:56:24;100886.00;;;21.00
19644;BMP180;9970;-36.854;174.870;2023-02-11T03:59:01;100880.00;;;21.00
19644;BMP180;9970;-36.854;174.870;2023-02-11T04:01:34;100887.00;;;21.10
19644;BMP180;9970;-36.854;174.870;2023-02-11T04:04:07;100876.00;;;21.10
19644;BMP180;9970;-36.854;174.870;2023-02-11T04:06:40;100880.00;;;21.10
19644;BMP180;9970;-36.854;174.870;2023-02-11T04:09:14;100867.00;;;21.10
19644;BMP180;9970;-36.854;174.870;2023-02-11T04:11:47;100863.00;;;21.10
19644;BMP180;9970;-36.854;174.870;2023-02-11T04:14:20;100845.00;;;21.10
19644;BMP180;9970;-36.854;174.870;2023-02-11T04:16:53;100850.00;;;21.10
19644;BMP180;9970;-36.854;174.870;2023-02-11T04:19:26;100836.00;;;21.10
19644;BMP180;9970;-36.854;174.870;2023-02-11T04:21:59;100822.00;;;21.10
19644;BMP180;9970;-36.854;174.870;2023-02-11T04:24:32;100819.00;;;21.10
19644;BMP180;9970;-36.854;174.870;2023-02-11T04:27:05;100810.00;;;21.10
19644;BMP180;9970;-36.854;174.870;2023-02-11T04:29:38;100825.00;;;21.10
19644;BMP180;9970;-36.854;174.870;2023-02-11T04:32:11;100813.00;;;21.10
19644;BMP180;9970;-36.854;174.870;2023-02-11T04:34:44;100801.00;;;21.10
19644;BMP180;9970;-36.854;174.870;2023-02-11T04:37:18;100785.00;;;21.10
19644;BMP180;9970;-36.854;174.870;2023-02-11T04:39:51;100802.00;;;21.10
19644;BMP180;9970;-36.854;174.870;2023-02-11T04:42:24;100792.00;;;21.10
19644;BMP180;9970;-36.854;174.870;2023-02-11T04:44:56;100780.00;;;21.00
19644;BMP180;9970;-36.854;174.870;2023-02-11T04:47:30;100780.00;;;21.10
19644;BMP180;9970;-36.854;174.870;2023-02-11T04:50:03;100769.00;;;21.00
19644;BMP180;9970;-36.854;174.870;2023-02-11T04:52:36;100778.00;;;21.00
19644;BMP180;9970;-36.854;174.870;2023-02-11T04:55:08;100767.00;;;21.00
19644;BMP180;9970;-36.854;174.870;2023-02-11T04:57:41;100760.00;;;21.00
19644;BMP180;9970;-36.854;174.870;2023-02-11T05:00:15;100760.00;;;21.00
19644;BMP180;9970;-36.854;174.870;2023-02-11T05:02:48;100753.00;;;21.00
19644;BMP180;9970;-36.854;174.870;2023-02-11T05:05:20;100754.00;;;21.00
19644;BMP180;9970;-36.854;174.870;2023-02-11T05:07:53;100737.00;;;21.00
19644;BMP180;9970;-36.854;174.870;2023-02-11T05:10:26;100704.00;;;21.00
19644;BMP180;9970;-36.854;174.870;2023-02-11T05:12:59;100712.00;;;21.00
19644;BMP180;9970;-36.854;174.870;2023-02-11T05:15:32;100734.00;;;20.90
19644;BMP180;9970;-36.854;174.870;2023-02-11T05:18:05;100704.00;;;20.90
19644;BMP180;9970;-36.854;174.870;2023-02-11T05:20:39;100713.00;;;20.90
19644;BMP180;9970;-36.854;174.870;2023-02-11T05:23:12;100701.00;;;20.90
19644;BMP180;9970;-36.854;174.870;2023-02-11T05:25:44;100707.00;;;20.80
19644;BMP180;9970;-36.854;174.870;2023-02-11T05:28:18;100700.00;;;20.80
19644;BMP180;9970;-36.854;174.870;2023-02-11T05:30:51;100710.00;;;20.80
19644;BMP180;9970;-36.854;174.870;2023-02-11T05:33:24;100696.00;;;20.80
19644;BMP180;9970;-36.854;174.870;2023-02-11T05:36:01;100698.00;;;20.80
19644;BMP180;9970;-36.854;174.870;2023-02-11T05:38:35;100692.00;;;20.80
19644;BMP180;9970;-36.854;174.870;2023-02-11T05:41:07;100690.00;;;20.80
19644;BMP180;9970;-36.854;174.870;2023-02-11T05:43:40;100678.00;;;20.80
19644;BMP180;9970;-36.854;174.870;2023-02-11T05:46:13;100676.00;;;20.70
19644;BMP180;9970;-36.854;174.870;2023-02-11T05:48:50;100668.00;;;20.70
19644;BMP180;9970;-36.854;174.870;2023-02-11T05:51:23;100677.00;;;20.70
19644;BMP180;9970;-36.854;174.870;2023-02-11T05:53:55;100672.00;;;20.70
19644;BMP180;9970;-36.854;174.870;2023-02-11T05:56:28;100675.00;;;20.70
19644;BMP180;9970;-36.854;174.870;2023-02-11T05:59:01;100677.00;;;20.70
19644;BMP180;9970;-36.854;174.870;2023-02-11T06:01:34;100685.00;;;20.60
19644;BMP180;9970;-36.854;174.870;2023-02-11T06:04:07;100681.00;;;20.60
19644;BMP180;9970;-36.854;174.870;2023-02-11T06:06:40;100670.00;;;20.60
19644;BMP180;9970;-36.854;174.870;2023-02-11T06:09:13;100675.00;;;20.60
19644;BMP180;9970;-36.854;174.870;2023-02-11T06:11:46;100673.00;;;20.60
19644;BMP180;9970;-36.854;174.870;2023-02-11T06:14:20;100687.00;;;20.60
19644;BMP180;9970;-36.854;174.870;2023-02-11T06:16:53;100687.00;;;20.60
19644;BMP180;9970;-36.854;174.870;2023-02-11T06:19:26;100690.00;;;20.60
19644;BMP180;9970;-36.854;174.870;2023-02-11T06:21:59;100683.00;;;20.60
19644;BMP180;9970;-36.854;174.870;2023-02-11T06:24:32;100680.00;;;20.60
19644;BMP180;9970;-36.854;174.870;2023-02-11T06:27:06;100683.00;;;20.50
19644;BMP180;9970;-36.854;174.870;2023-02-11T06:29:39;100696.00;;;20.50
19644;BMP180;9970;-36.854;174.870;2023-02-11T06:32:12;100689.00;;;20.50
19644;BMP180;9970;-36.854;174.870;2023-02-11T06:34:46;100696.00;;;20.50
19644;BMP180;9970;-36.854;174.870;2023-02-11T06:37:20;100697.00;;;20.50
19644;BMP180;9970;-36.854;174.870;2023-02-11T06:39:53;100700.00;;;20.50
19644;BMP180;9970;-36.854;174.870;2023-02-11T06:42:26;100683.00;;;20.50
19644;BMP180;9970;-36.854;174.870;2023-02-11T06:44:59;100704.00;;;20.50
19644;BMP180;9970;-36.854;174.870;2023-02-11T06:47:32;100714.00;;;20.50
19644;BMP180;9970;-36.854;174.870;2023-02-11T06:50:06;100694.00;;;20.50
19644;BMP180;9970;-36.854;174.870;2023-02-11T06:52:39;100678.00;;;20.50
19644;BMP180;9970;-36.854;174.870;2023-02-11T06:55:12;100681.00;;;20.50
19644;BMP180;9970;-36.854;174.870;2023-02-11T06:57:45;100673.00;;;20.50
19644;BMP180;9970;-36.854;174.870;2023-02-11T07:00:18;100678.00;;;20.50
19644;BMP180;9970;-36.854;174.870;2023-02-11T07:02:51;100667.00;;;20.50
19644;BMP180;9970;-36.854;174.870;2023-02-11T07:05:24;100670.00;;;20.50
19644;BMP180;9970;-36.854;174.870;2023-02-11T07:07:57;100670.00;;;20.40
19644;BMP180;9970;-36.854;174.870;2023-02-11T07:10:30;100660.00;;;20.40
19644;BMP180;9970;-36.854;174.870;2023-02-11T07:13:03;100651.00;;;20.40
19644;BMP180;9970;-36.854;174.870;2023-02-11T07:15:36;100659.00;;;20.40
19644;BMP180;9970;-36.854;174.870;2023-02-11T07:18:14;100677.00;;;20.40
19644;BMP180;9970;-36.854;174.870;2023-02-11T07:20:47;100651.00;;;20.40
19644;BMP180;9970;-36.854;174.870;2023-02-11T07:23:20;100658.00;;;20.30
19644;BMP180;9970;-36.854;174.870;2023-02-11T07:25:53;100645.00;;;20.30
19644;BMP180;9970;-36.854;174.870;2023-02-11T07:28:26;100642.00;;;20.30
19644;BMP180;9970;-36.854;174.870;2023-02-11T07:30:59;100654.00;;;20.30
19644;BMP180;9970;-36.854;174.870;2023-02-11T07:33:34;100648.00;;;20.30
19644;BMP180;9970;-36.854;174.870;2023-02-11T07:36:08;100636.00;;;20.30
19644;BMP180;9970;-36.854;174.870;2023-02-11T07:38:42;100641.00;;;20.30
19644;BMP180;9970;-36.854;174.870;2023-02-11T07:41:17;100640.00;;;20.30
19644;BMP180;9970;-36.854;174.870;2023-02-11T07:43:50;100636.00;;;20.20
19644;BMP180;9970;-36.854;174.870;2023-02-11T07:46:27;100636.00;;;20.20
19644;BMP180;9970;-36.854;174.870;2023-02-11T07:49:00;100643.00;;;20.20
19644;BMP180;9970;-36.854;174.870;2023-02-11T07:51:33;100634.00;;;20.20
19644;BMP180;9970;-36.854;174.870;2023-02-11T07:54:06;100646.00;;;20.20
19644;BMP180;9970;-36.854;174.870;2023-02-11T07:56:40;100642.00;;;20.20
19644;BMP180;9970;-36.854;174.870;2023-02-11T07:59:13;100646.00;;;20.20
19644;BMP180;9970;-36.854;174.870;2023-02-11T08:01:46;100646.00;;;20.20
19644;BMP180;9970;-36.854;174.870;2023-02-11T08:04:20;100653.00;;;20.10
19644;BMP180;9970;-36.854;174.870;2023-02-11T08:06:53;100650.00;;;20.20
19644;BMP180;9970;-36.854;174.870;2023-02-11T08:09:27;100656.00;;;20.20
19644;BMP180;9970;-36.854;174.870;2023-02-11T08:12:02;100645.00;;;20.10
19644;BMP180;9970;-36.854;174.870;2023-02-11T08:14:35;100666.00;;;20.10
19644;BMP180;9970;-36.854;174.870;2023-02-11T08:17:08;100659.00;;;20.10
19644;BMP180;9970;-36.854;174.870;2023-02-11T08:19:41;100681.00;;;20.10
19644;BMP180;9970;-36.854;174.870;2023-02-11T08:22:19;100688.00;;;20.10
19644;BMP180;9970;-36.854;174.870;2023-02-11T08:24:52;100694.00;;;20.10
19644;BMP180;9970;-36.854;174.870;2023-02-11T08:27:27;100679.00;;;20.10
19644;BMP180;9970;-36.854;174.870;2023-02-11T08:30:00;100683.00;;;20.10
19644;BMP180;9970;-36.854;174.870;2023-02-11T08:32:34;100687.00;;;20.10
19644;BMP180;9970;-36.854;174.870;2023-02-11T08:35:07;100694.00;;;20.10
19644;BMP180;9970;-36.854;174.870;2023-02-11T08:37:42;100687.00;;;20.10
19644;BMP180;9970;-36.854;174.870;2023-02-11T08:40:15;100684.00;;;20.10
19644;BMP180;9970;-36.854;174.870;2023-02-11T08:42:48;100687.00;;;20.10
19644;BMP180;9970;-36.854;174.870;2023-02-11T08:45:21;100677.00;;;20.10
19644;BMP180;9970;-36.854;174.870;2023-02-11T08:47:54;100689.00;;;20.00
19644;BMP180;9970;-36.854;174.870;2023-02-11T08:50:27;100699.00;;;20.10
19644;BMP180;9970;-36.854;174.870;2023-02-11T08:52:59;100691.00;;;20.00
19644;BMP180;9970;-36.854;174.870;2023-02-11T08:55:33;100694.00;;;20.00
19644;BMP180;9970;-36.854;174.870;2023-02-11T08:58:06;100697.00;;;20.00
19644;BMP180;9970;-36.854;174.870;2023-02-11T09:00:39;100689.00;;;20.00
19644;BMP180;9970;-36.854;174.870;2023-02-11T09:03:13;100688.00;;;20.00
19644;BMP180;9970;-36.854;174.870;2023-02-11T09:05:48;100678.00;;;20.00
19644;BMP180;9970;-36.854;174.870;2023-02-11T09:08:23;100675.00;;;20.00
19644;BMP180;9970;-36.854;174.870;2023-02-11T09:10:56;100692.00;;;20.00
19644;BMP180;9970;-36.854;174.870;2023-02-11T09:13:29;100696.00;;;20.00
19644;BMP180;9970;-36.854;174.870;2023-02-11T09:16:04;100683.00;;;20.00
19644;BMP180;9970;-36.854;174.870;2023-02-11T09:18:37;100682.00;;;20.00
19644;BMP180;9970;-36.854;174.870;2023-02-11T09:21:10;100680.00;;;20.00
19644;BMP180;9970;-36.854;174.870;2023-02-11T09:23:45;100669.00;;;20.00
19644;BMP180;9970;-36.854;174.870;2023-02-11T09:26:19;100661.00;;;20.00
19644;BMP180;9970;-36.854;174.870;2023-02-11T09:28:53;100666.00;;;20.00
19644;BMP180;9970;-36.854;174.870;2023-02-11T09:31:27;100657.00;;;20.00
19644;BMP180;9970;-36.854;174.870;2023-02-11T09:34:02;100655.00;;;20.00
19644;BMP180;9970;-36.854;174.870;2023-02-11T09:36:37;100656.00;;;20.00
19644;BMP180;9970;-36.854;174.870;2023-02-11T09:39:13;100656.00;;;20.00
19644;BMP180;9970;-36.854;174.870;2023-02-11T09:44:57;100663.00;;;20.00
19644;BMP180;9970;-36.854;174.870;2023-02-11T09:47:33;100669.00;;;20.00
19644;BMP180;9970;-36.854;174.870;2023-02-11T09:50:10;100690.00;;;20.00
19644;BMP180;9970;-36.854;174.870;2023-02-11T09:52:46;100697.00;;;20.00
19644;BMP180;9970;-36.854;174.870;2023-02-11T09:55:20;100676.00;;;19.90
19644;BMP180;9970;-36.854;174.870;2023-02-11T09:57:57;100667.00;;;19.90
19644;BMP180;9970;-36.854;174.870;2023-02-11T10:00:39;100657.00;;;19.80
19644;BMP180;9970;-36.854;174.870;2023-02-11T10:06:12;100653.00;;;19.80
19644;BMP180;9970;-36.854;174.870;2023-02-11T10:11:54;100678.00;;;19.80
19644;BMP180;9970;-36.854;174.870;2023-02-11T10:22:57;100636.00;;;19.60
19644;BMP180;9970;-36.854;174.870;2023-02-11T10:25:42;100653.00;;;19.60
19644;BMP180;9970;-36.854;174.870;2023-02-11T10:28:20;100621.00;;;19.50
19644;BMP180;9970;-36.854;174.870;2023-02-11T10:31:00;100629.00;;;19.50
19644;BMP180;9970;-36.854;174.870;2023-02-11T10:33:49;100617.00;;;19.50
19644;BMP180;9970;-36.854;174.870;2023-02-11T10:36:23;100610.00;;;19.50
19644;BMP180;9970;-36.854;174.870;2023-02-11T10:38:57;100619.00;;;19.50
19644;BMP180;9970;-36.854;174.870;2023-02-11T10:41:37;100604.00;;;19.50
19644;BMP180;9970;-36.854;174.870;2023-02-11T10:44:06;100611.00;;;19.50
19644;BMP180;9970;-36.854;174.870;2023-02-11T10:46:42;100609.00;;;19.50
19644;BMP180;9970;-36.854;174.870;2023-02-11T10:49:36;100620.00;;;19.50
19644;BMP180;9970;-36.854;174.870;2023-02-11T10:52:13;100628.00;;;19.50
19644;BMP180;9970;-36.854;174.870;2023-02-11T10:55:03;100625.00;;;19.50
19644;BMP180;9970;-36.854;174.870;2023-02-11T10:57:52;100630.00;;;19.50
19644;BMP180;9970;-36.854;174.870;2023-02-11T11:03:22;100628.00;;;19.40
19644;BMP180;9970;-36.854;174.870;2023-02-11T11:06:00;100614.00;;;19.40
19644;BMP180;9970;-36.854;174.870;2023-02-11T11:08:41;100615.00;;;19.40
19644;BMP180;9970;-36.854;174.870;2023-02-11T11:11:16;100600.00;;;19.40
19644;BMP180;9970;-36.854;174.870;2023-02-11T11:13:59;100594.00;;;19.40
19644;BMP180;9970;-36.854;174.870;2023-02-11T11:16:37;100609.00;;;19.40
19644;BMP180;9970;-36.854;174.870;2023-02-11T11:19:15;100610.00;;;19.40
19644;BMP180;9970;-36.854;174.870;2023-02-11T11:21:56;100600.00;;;19.40
19644;BMP180;9970;-36.854;174.870;2023-02-11T11:24:45;100626.00;;;19.40
19644;BMP180;9970;-36.854;174.870;2023-02-11T11:27:24;100595.00;;;19.40
19644;BMP180;9970;-36.854;174.870;2023-02-11T11:29:57;100595.00;;;19.40
19644;BMP180;9970;-36.854;174.870;2023-02-11T11:32:32;100581.00;;;19.40
19644;BMP180;9970;-36.854;174.870;2023-02-11T11:35:19;100590.00;;;19.40
19644;BMP180;9970;-36.854;174.870;2023-02-11T11:37:42;100579.00;;;19.40
19644;BMP180;9970;-36.854;174.870;2023-02-11T11:43:05;100576.00;;;19.40
19644;BMP180;9970;-36.854;174.870;2023-02-11T11:45:37;100592.00;;;19.40
19644;BMP180;9970;-36.854;174.870;2023-02-11T11:51:08;100570.00;;;19.30
19644;BMP180;9970;-36.854;174.870;2023-02-11T11:53:40;100568.00;;;19.30
19644;BMP180;9970;-36.854;174.870;2023-02-11T11:56:25;100552.00;;;19.40
19644;BMP180;9970;-36.854;174.870;2023-02-11T11:58:59;100547.00;;;19.30
19644;BMP180;9970;-36.854;174.870;2023-02-11T12:01:53;100551.00;;;19.30
19644;BMP180;9970;-36.854;174.870;2023-02-11T12:04:52;100537.00;;;19.30
19644;BMP180;9970;-36.854;174.870;2023-02-11T12:07:35;100530.00;;;19.30
19644;BMP180;9970;-36.854;174.870;2023-02-11T12:13:15;100506.00;;;19.30
19644;BMP180;9970;-36.854;174.870;2023-02-11T12:19:14;100494.00;;;19.30
19644;BMP180;9970;-36.854;174.870;2023-02-11T12:25:05;100485.00;;;19.40
19644;BMP180;9970;-36.854;174.870;2023-02-11T12:36:37;100472.00;;;19.30
19644;BMP180;9970;-36.854;174.870;2023-02-11T12:39:11;100480.00;;;19.40
19644;BMP180;9970;-36.854;174.870;2023-02-11T12:41:48;100470.00;;;19.30
19644;BMP180;9970;-36.854;174.870;2023-02-11T12:45:04;100465.00;;;19.30
19644;BMP180;9970;-36.854;174.870;2023-02-11T12:50:34;100456.00;;;19.40
19644;BMP180;9970;-36.854;174.870;2023-02-11T12:55:55;100439.00;;;19.40
19644;BMP180;9970;-36.854;174.870;2023-02-11T12:58:29;100423.00;;;19.40
19644;BMP180;9970;-36.854;174.870;2023-02-11T13:01:09;100415.00;;;19.40
19644;BMP180;9970;-36.854;174.870;2023-02-11T13:03:53;100416.00;;;19.40
19644;BMP180;9970;-36.854;174.870;2023-02-11T13:06:26;100413.00;;;19.40
19644;BMP180;9970;-36.854;174.870;2023-02-11T13:09:03;100411.00;;;19.50
19644;BMP180;9970;-36.854;174.870;2023-02-11T13:11:41;100391.00;;;19.50
19644;BMP180;9970;-36.854;174.870;2023-02-11T13:14:25;100408.00;;;19.50
19644;BMP180;9970;-36.854;174.870;2023-02-11T13:16:57;100400.00;;;19.50
19644;BMP180;9970;-36.854;174.870;2023-02-11T13:19:36;100401.00;;;19.50
19644;BMP180;9970;-36.854;174.870;2023-02-11T13:24:55;100387.00;;;19.50
19644;BMP180;9970;-36.854;174.870;2023-02-11T13:27:38;100378.00;;;19.50
19644;BMP180;9970;-36.854;174.870;2023-02-11T13:30:36;100387.00;;;19.50
19644;BMP180;9970;-36.854;174.870;2023-02-11T13:33:29;100383.00;;;19.50
19644;BMP180;9970;-36.854;174.870;2023-02-11T13:38:34;100368.00;;;19.40
19644;BMP180;9970;-36.854;174.870;2023-02-11T13:41:18;100364.00;;;19.40
19644;BMP180;9970;-36.854;174.870;2023-02-11T13:44:00;100357.00;;;19.40
19644;BMP180;9970;-36.854;174.870;2023-02-11T13:47:06;100365.00;;;19.40
19644;BMP180;9970;-36.854;174.870;2023-02-11T13:49:37;100361.00;;;19.40
19644;BMP180;9970;-36.854;174.870;2023-02-11T13:52:30;100347.00;;;19.40
19644;BMP180;9970;-36.854;174.870;2023-02-11T13:55:26;100349.00;;;19.30
19644;BMP180;9970;-36.854;174.870;2023-02-11T13:57:39;100344.00;;;19.30
19644;BMP180;9970;-36.854;174.870;2023-02-11T14:06:13;100335.00;;;19.30
19644;BMP180;9970;-36.854;174.870;2023-02-11T14:12:15;100335.00;;;19.30
19644;BMP180;9970;-36.854;174.870;2023-02-11T14:14:31;100345.00;;;19.30
19644;BMP180;9970;-36.854;174.870;2023-02-11T14:19:42;100354.00;;;19.20
19644;BMP180;9970;-36.854;174.870;2023-02-11T14:22:24;100350.00;;;19.10
19644;BMP180;9970;-36.854;174.870;2023-02-11T14:24:55;100341.00;;;19.00
19644;BMP180;9970;-36.854;174.870;2023-02-11T14:35:46;100313.00;;;18.90
19644;BMP180;9970;-36.854;174.870;2023-02-11T14:41:10;100309.00;;;18.80
19644;BMP180;9970;-36.854;174.870;2023-02-11T14:43:51;100323.00;;;18.80
19644;BMP180;9970;-36.854;174.870;2023-02-11T14:46:27;100310.00;;;18.80
19644;BMP180;9970;-36.854;174.870;2023-02-11T14:49:05;100315.00;;;18.80
19644;BMP180;9970;-36.854;174.870;2023-02-11T14:51:40;100311.00;;;18.80
19644;BMP180;9970;-36.854;174.870;2023-02-11T14:54:17;100317.00;;;18.80
19644;BMP180;9970;-36.854;174.870;2023-02-11T15:00:04;100306.00;;;18.80
19644;BMP180;9970;-36.854;174.870;2023-02-11T15:02:36;100311.00;;;18.70
19644;BMP180;9970;-36.854;174.870;2023-02-11T15:05:20;100300.00;;;18.70
19644;BMP180;9970;-36.854;174.870;2023-02-11T15:08:02;100293.00;;;18.80
19644;BMP180;9970;-36.854;174.870;2023-02-11T15:10:40;100286.00;;;18.70
19644;BMP180;9970;-36.854;174.870;2023-02-11T15:13:19;100288.00;;;18.70
19644;BMP180;9970;-36.854;174.870;2023-02-11T15:16:15;100281.00;;;18.70
19644;BMP180;9970;-36.854;174.870;2023-02-11T15:18:32;100285.00;;;18.70
19644;BMP180;9970;-36.854;174.870;2023-02-11T15:21:02;100283.00;;;18.70
19644;BMP180;9970;-36.854;174.870;2023-02-11T15:23:35;100267.00;;;18.70
19644;BMP180;9970;-36.854;174.870;2023-02-11T15:26:19;100271.00;;;18.70
19644;BMP180;9970;-36.854;174.870;2023-02-11T15:28:49;100251.00;;;18.70
19644;BMP180;9970;-36.854;174.870;2023-02-11T15:31:27;100265.00;;;18.70
19644;BMP180;9970;-36.854;174.870;2023-02-11T15:34:05;100253.00;;;18.70
19644;BMP180;9970;-36.854;174.870;2023-02-11T15:36:36;100254.00;;;18.70
19644;BMP180;9970;-36.854;174.870;2023-02-11T15:39:32;100261.00;;;18.70
19644;BMP180;9970;-36.854;174.870;2023-02-11T15:47:54;100277.00;;;18.60
19644;BMP180;9970;-36.854;174.870;2023-02-11T15:50:34;100275.00;;;18.60
19644;BMP180;9970;-36.854;174.870;2023-02-11T15:53:28;100281.00;;;18.60
19644;BMP180;9970;-36.854;174.870;2023-02-11T15:56:19;100276.00;;;18.60
19644;BMP180;9970;-36.854;174.870;2023-02-11T15:58:52;100270.00;;;18.60
19644;BMP180;9970;-36.854;174.870;2023-02-11T16:01:33;100264.00;;;18.60